createdAt,value
2022-10-17T00:01:03.534Z,82.99
2022-10-17T00:03:31.260Z,82.96
2022-10-17T00:05:59.007Z,82.82
2022-10-17T00:08:26.440Z,82.52
2022-10-17T00:11:03.292Z,82.96
2022-10-17T00:13:31.064Z,82.87
2022-10-17T00:15:58.986Z,82.42
2022-10-17T00:18:27.033Z,82.26
2022-10-17T00:20:54.492Z,81.87
2022-10-17T00:23:22.243Z,82.49
2022-10-17T00:26:03.846Z,82.15
2022-10-17T00:28:33.353Z,82.12
2022-10-17T00:31:03.939Z,82.88
2022-10-17T00:33:32.214Z,82.89
2022-10-17T00:36:15.800Z,81.53
2022-10-17T00:38:45.348Z,82.42
2022-10-17T00:41:16.326Z,83.00
2022-10-17T00:44:08.215Z,82.88
2022-10-17T00:46:37.920Z,82.24
2022-10-17T00:49:09.835Z,82.64
2022-10-17T00:51:42.412Z,83.04
2022-10-17T00:54:13.903Z,83.15
2022-10-17T00:56:41.950Z,83.73
2022-10-17T00:59:12.435Z,83.38
2022-10-17T01:01:42.000Z,82.99
2022-10-17T01:04:10.976Z,82.92
2022-10-17T01:06:40.235Z,83.81
2022-10-17T01:09:07.809Z,83.59
2022-10-17T01:11:41.683Z,83.08
2022-10-17T01:14:30.307Z,82.90
2022-10-17T01:17:11.911Z,82.73
2022-10-17T01:20:20.192Z,82.88
2022-10-17T01:22:59.193Z,82.12
2022-10-17T01:25:38.251Z,82.29
2022-10-17T01:28:24.261Z,82.50
2022-10-17T01:31:15.992Z,82.49
2022-10-17T01:34:00.361Z,83.35
2022-10-17T01:36:39.984Z,82.80
2022-10-17T01:39:26.958Z,82.68
2022-10-17T01:42:03.606Z,83.37
2022-10-17T01:44:54.157Z,82.90
2022-10-17T01:47:26.926Z,82.91
2022-10-17T01:50:01.649Z,83.68
2022-10-17T01:52:38.800Z,82.95
2022-10-17T01:55:23.681Z,82.75
2022-10-17T01:57:53.121Z,83.03
2022-10-17T02:00:27.670Z,82.75
2022-10-17T02:03:00.251Z,83.14
2022-10-17T02:05:39.117Z,83.11
2022-10-17T02:08:07.219Z,82.58
2022-10-17T02:11:02.365Z,83.25
2022-10-17T02:13:51.436Z,82.73
2022-10-17T02:16:37.344Z,83.32
2022-10-17T02:19:20.045Z,83.59
2022-10-17T02:22:04.289Z,83.40
2022-10-17T02:24:53.080Z,83.22
2022-10-17T02:27:47.907Z,83.30
2022-10-17T02:30:36.723Z,84.11
2022-10-17T02:33:14.452Z,84.02
2022-10-17T02:35:47.503Z,83.59
2022-10-17T02:38:16.497Z,82.85
2022-10-17T02:40:46.029Z,83.49
2022-10-17T02:43:14.932Z,82.90
2022-10-17T02:45:42.445Z,83.11
2022-10-17T02:48:22.510Z,82.71
2022-10-17T02:51:12.418Z,82.83
2022-10-17T02:53:59.041Z,83.04
2022-10-17T02:56:31.053Z,82.86
2022-10-17T02:59:01.271Z,83.46
2022-10-17T03:01:30.977Z,83.57
2022-10-17T03:04:10.122Z,83.03
2022-10-17T03:06:38.669Z,83.92
2022-10-17T03:09:07.152Z,83.40
2022-10-17T03:11:37.232Z,82.65
2022-10-17T03:14:04.907Z,82.62
2022-10-17T03:16:32.754Z,83.67
2022-10-17T03:19:00.505Z,83.69
2022-10-17T03:21:28.150Z,83.10
2022-10-17T03:23:56.594Z,83.77
2022-10-17T03:26:24.861Z,82.91
2022-10-17T03:28:54.490Z,82.19
2022-10-17T03:31:23.479Z,82.87
2022-10-17T03:33:52.650Z,82.73
2022-10-17T03:36:20.459Z,82.51
2022-10-17T03:38:48.505Z,82.51
2022-10-17T03:41:17.964Z,82.32
2022-10-17T03:43:45.463Z,82.50
2022-10-17T03:46:13.233Z,82.35
2022-10-17T03:48:40.852Z,83.44
2022-10-17T03:51:09.653Z,82.81
2022-10-17T03:53:47.975Z,83.47
2022-10-17T03:56:21.861Z,82.40
2022-10-17T03:58:58.147Z,83.37
2022-10-17T04:01:25.770Z,83.27
2022-10-17T04:03:55.112Z,83.32
2022-10-17T04:06:23.388Z,82.68
2022-10-17T04:08:51.187Z,83.12
2022-10-17T04:11:25.744Z,83.63
2022-10-17T04:13:59.316Z,83.55
2022-10-17T04:16:28.505Z,83.67
2022-10-17T04:19:03.204Z,84.90
2022-10-17T04:21:40.512Z,84.42
2022-10-17T04:24:11.213Z,83.75
2022-10-17T04:26:58.922Z,83.01
2022-10-17T04:29:40.899Z,83.66
2022-10-17T04:32:17.184Z,83.27
2022-10-17T04:34:50.189Z,83.03
2022-10-17T04:37:19.062Z,82.88
2022-10-17T04:39:48.078Z,83.67
2022-10-17T04:42:15.594Z,83.14
2022-10-17T04:44:43.175Z,83.07
2022-10-17T04:47:11.071Z,83.48
2022-10-17T04:52:13.108Z,82.52
2022-10-17T04:54:43.715Z,82.44
2022-10-17T04:57:13.971Z,82.68
2022-10-17T04:59:44.485Z,83.40
2022-10-17T05:02:30.775Z,83.74
2022-10-17T05:04:59.474Z,83.15
2022-10-17T05:07:27.028Z,83.34
2022-10-17T05:10:03.731Z,83.25
2022-10-17T05:12:32.883Z,83.42
2022-10-17T05:15:02.022Z,83.07
2022-10-17T05:17:31.573Z,83.95
2022-10-17T05:19:59.140Z,82.74
2022-10-17T05:22:26.992Z,82.47
2022-10-17T05:24:56.071Z,82.92
2022-10-17T05:27:24.343Z,82.03
2022-10-17T05:29:53.791Z,82.82
2022-10-17T05:32:27.839Z,82.88
2022-10-17T05:34:56.134Z,82.75
2022-10-17T05:37:25.932Z,82.56
2022-10-17T05:39:59.451Z,81.82
2022-10-17T05:42:27.845Z,82.27
2022-10-17T05:44:56.828Z,82.10
2022-10-17T05:47:24.501Z,82.00
2022-10-17T05:49:54.412Z,82.00
2022-10-17T05:52:28.301Z,81.92
2022-10-17T05:55:08.794Z,81.84
2022-10-17T05:57:36.375Z,81.92
2022-10-17T06:00:07.786Z,81.80
2022-10-17T06:02:50.818Z,81.18
2022-10-17T06:05:20.756Z,80.85
2022-10-17T06:07:50.203Z,81.14
2022-10-17T06:10:18.973Z,80.36
2022-10-17T06:12:46.780Z,79.74
2022-10-17T06:15:15.648Z,79.24
2022-10-17T06:17:47.565Z,79.65
2022-10-17T06:20:15.244Z,78.72
2022-10-17T06:22:45.496Z,78.61
2022-10-17T06:25:18.865Z,78.22
2022-10-17T06:27:46.571Z,77.90
2022-10-17T06:30:14.244Z,78.18
2022-10-17T06:32:42.003Z,78.26
2022-10-17T06:35:09.615Z,77.97
2022-10-17T06:37:37.859Z,77.46
2022-10-17T06:40:10.544Z,76.53
2022-10-17T06:42:39.559Z,77.28
2022-10-17T06:45:27.431Z,75.51
2022-10-17T06:48:09.577Z,75.67
2022-10-17T06:51:12.766Z,75.94
2022-10-17T06:53:48.668Z,74.80
2022-10-17T06:56:36.754Z,72.96
2022-10-17T06:59:30.031Z,73.09
2022-10-17T07:02:24.278Z,71.12
2022-10-17T07:04:53.399Z,68.51
2022-10-17T07:07:20.996Z,68.58
2022-10-17T07:09:51.525Z,64.56
2022-10-17T08:52:42.815Z,14.19
2022-10-17T09:16:32.586Z,15.09
2022-10-17T09:19:25.189Z,16.34
2022-10-17T09:22:01.747Z,14.49
2022-10-17T09:24:39.322Z,16.59
2022-10-17T09:27:34.103Z,16.72
2022-10-17T09:30:40.139Z,17.33
2022-10-17T09:33:23.351Z,16.64
2022-10-17T09:36:04.365Z,18.38
2022-10-17T09:38:39.817Z,20.21
2022-10-17T09:41:43.063Z,18.45
2022-10-17T09:44:18.524Z,19.06
2022-10-17T09:47:11.480Z,17.02
2022-10-17T09:49:42.239Z,18.44
2022-10-17T09:52:39.619Z,19.43
2022-10-17T09:55:21.087Z,19.58
2022-10-17T09:58:03.813Z,19.26
2022-10-17T10:00:38.059Z,20.24
2022-10-17T10:03:09.518Z,17.68
2022-10-17T10:05:37.169Z,17.99
2022-10-17T10:08:12.733Z,18.21
2022-10-17T10:10:43.742Z,18.23
2022-10-17T10:13:13.922Z,19.01
2022-10-17T10:15:41.452Z,17.71
2022-10-17T10:18:27.188Z,17.59
2022-10-17T10:21:14.758Z,17.52
2022-10-17T10:23:44.579Z,18.75
2022-10-17T10:26:25.821Z,20.79
2022-10-17T10:28:55.990Z,19.62
2022-10-17T10:31:29.375Z,19.58
2022-10-17T10:33:58.727Z,21.35
2022-10-17T10:36:26.415Z,19.14
2022-10-17T10:39:01.297Z,18.27
2022-10-17T10:41:47.499Z,20.04
2022-10-17T10:44:16.203Z,20.81
2022-10-17T10:46:43.661Z,18.94
2022-10-17T10:49:29.831Z,21.06
2022-10-17T10:52:00.555Z,19.20
2022-10-17T10:54:34.269Z,18.67
2022-10-17T10:57:07.309Z,19.64
2022-10-17T10:59:46.580Z,21.20
2022-10-17T11:02:46.104Z,19.31
2022-10-17T11:05:29.012Z,20.47
2022-10-17T11:08:06.045Z,20.12
2022-10-17T11:10:44.510Z,20.54
2022-10-17T11:13:19.088Z,20.28
2022-10-17T11:16:04.769Z,21.28
2022-10-17T11:18:47.524Z,21.79
2022-10-17T11:21:29.279Z,22.24
2022-10-17T11:24:06.872Z,22.84
2022-10-17T11:26:45.184Z,19.89
2022-10-17T11:29:13.799Z,19.57
2022-10-17T11:31:48.601Z,21.02
2022-10-17T11:34:27.438Z,21.14
2022-10-17T11:37:01.265Z,19.96
2022-10-17T11:42:19.936Z,22.24
2022-10-17T11:44:52.438Z,19.86
2022-10-17T11:48:02.956Z,19.55
2022-10-17T11:53:31.191Z,19.80
2022-10-17T11:56:00.930Z,21.38
2022-10-17T11:58:48.271Z,20.45
2022-10-17T12:01:19.277Z,19.41
2022-10-17T12:03:59.569Z,19.81
2022-10-17T12:06:39.205Z,20.05
2022-10-17T12:09:37.184Z,22.17
2022-10-17T12:12:04.883Z,21.34
2022-10-17T12:14:47.484Z,22.76
2022-10-17T12:17:23.327Z,23.24
2022-10-17T12:19:51.395Z,22.34
2022-10-17T12:22:23.151Z,21.39
2022-10-17T12:25:02.651Z,20.75
2022-10-17T12:27:43.723Z,20.83
2022-10-17T12:30:19.693Z,21.69
2022-10-17T12:33:05.682Z,24.04
2022-10-17T12:35:35.833Z,24.71
2022-10-17T12:38:20.319Z,24.82
2022-10-17T12:40:52.965Z,24.83
2022-10-17T12:43:29.501Z,23.64
2022-10-17T12:45:58.565Z,25.05
2022-10-17T12:48:38.414Z,25.08
2022-10-17T12:51:34.658Z,24.98
2022-10-17T12:54:12.763Z,23.53
2022-10-17T12:56:49.458Z,27.41
2022-10-17T12:59:28.514Z,27.33
2022-10-17T13:02:00.763Z,25.70
2022-10-17T13:04:30.629Z,25.99
2022-10-17T13:07:00.693Z,25.71
2022-10-17T13:09:31.508Z,25.36
2022-10-17T13:12:03.164Z,25.02
2022-10-17T13:14:33.291Z,25.63
2022-10-17T13:17:00.771Z,25.01
2022-10-17T13:19:42.922Z,24.90
2022-10-17T13:22:16.569Z,26.40
2022-10-17T13:24:44.296Z,27.37
2022-10-17T13:27:32.655Z,28.56
2022-10-17T13:30:02.567Z,27.73
2022-10-17T13:32:40.775Z,27.54
2022-10-17T13:35:12.266Z,27.56
2022-10-17T13:37:47.346Z,28.79
2022-10-17T13:40:44.603Z,29.87
2022-10-17T13:43:16.073Z,31.77
2022-10-17T13:45:49.683Z,30.63
2022-10-17T13:48:29.958Z,30.88
2022-10-17T13:51:04.484Z,32.42
2022-10-17T13:53:35.257Z,33.32
2022-10-17T13:56:30.115Z,33.71
2022-10-17T13:59:01.463Z,33.57
2022-10-17T14:01:29.658Z,34.20
2022-10-17T14:04:08.342Z,34.80
2022-10-17T14:06:47.686Z,35.26
2022-10-17T14:09:25.431Z,35.49
2022-10-17T14:12:16.584Z,35.63
2022-10-17T14:15:13.007Z,35.46
2022-10-17T14:17:38.558Z,36.96
2022-10-17T14:20:57.175Z,37.24
2022-10-17T14:23:21.413Z,37.57
2022-10-17T14:25:44.551Z,37.57
2022-10-17T14:28:12.598Z,37.81
2022-10-17T14:30:57.164Z,38.29
2022-10-17T14:33:31.362Z,38.53
2022-10-17T14:36:01.598Z,38.57
2022-10-17T14:38:30.168Z,38.89
2022-10-17T14:44:07.048Z,39.40
2022-10-17T14:46:36.649Z,39.67
2022-10-17T14:49:25.092Z,39.72
2022-10-17T14:52:17.732Z,40.06
2022-10-17T14:54:49.747Z,40.47
2022-10-17T14:57:22.037Z,40.58
2022-10-17T14:59:55.202Z,41.17
2022-10-17T15:02:24.983Z,40.91
2022-10-17T15:04:52.976Z,41.85
2022-10-17T15:07:24.120Z,42.09
2022-10-17T15:09:53.990Z,41.74
2022-10-17T15:12:24.784Z,42.71
2022-10-17T15:14:55.741Z,42.59
2022-10-17T15:17:30.540Z,42.98
2022-10-17T15:19:59.033Z,43.96
2022-10-17T15:22:26.852Z,43.74
2022-10-17T15:24:54.399Z,43.74
2022-10-17T15:27:24.103Z,44.18
2022-10-17T15:29:53.079Z,45.04
2022-10-17T15:32:20.731Z,44.38
2022-10-17T15:34:48.238Z,45.80
2022-10-17T15:37:25.633Z,46.73
2022-10-17T15:39:54.908Z,49.65
2022-10-17T15:42:26.803Z,51.21
2022-10-17T15:44:57.961Z,51.58
2022-10-17T15:47:34.105Z,53.78
2022-10-17T15:50:03.167Z,53.80
2022-10-17T15:52:30.840Z,55.05
2022-10-17T15:55:00.955Z,55.41
2022-10-17T15:57:37.983Z,56.59
2022-10-17T16:00:16.358Z,57.67
2022-10-17T16:02:44.996Z,58.84
2022-10-17T16:05:18.703Z,59.17
2022-10-17T16:07:46.851Z,59.39
2022-10-17T16:10:16.167Z,60.94
2022-10-17T16:12:43.797Z,62.23
2022-10-17T16:15:16.910Z,61.93
2022-10-17T16:17:44.963Z,61.70
2022-10-17T16:20:14.101Z,63.12
2022-10-17T16:22:44.143Z,63.81
2022-10-17T16:25:39.342Z,63.62
2022-10-17T16:28:08.497Z,64.74
2022-10-17T16:30:43.020Z,66.23
2022-10-17T16:33:11.212Z,66.04
2022-10-17T16:35:38.881Z,66.19
2022-10-17T16:38:08.000Z,66.04
2022-10-17T16:40:38.688Z,66.18
2022-10-17T16:43:06.595Z,66.80
2022-10-17T16:45:34.164Z,66.04
2022-10-17T16:48:01.652Z,69.39
2022-10-17T16:50:31.210Z,68.98
2022-10-17T16:52:59.083Z,68.98
2022-10-17T16:55:26.743Z,69.38
2022-10-17T16:57:54.163Z,69.11
2022-10-17T17:00:21.684Z,70.47
2022-10-17T17:02:49.364Z,70.76
2022-10-17T17:05:16.918Z,71.40
2022-10-17T17:07:45.450Z,70.70
2022-10-17T17:10:13.065Z,71.67
2022-10-17T17:12:40.553Z,71.27
2022-10-17T17:15:08.303Z,72.30
2022-10-17T17:17:54.957Z,72.61
2022-10-17T17:20:23.483Z,72.26
2022-10-17T17:22:52.320Z,72.50
2022-10-17T17:25:20.002Z,73.54
2022-10-17T17:27:47.548Z,73.25
2022-10-17T17:30:15.825Z,73.49
2022-10-17T17:32:43.424Z,73.63
2022-10-17T17:35:10.968Z,74.35
2022-10-17T17:37:38.524Z,74.30
2022-10-17T17:40:12.394Z,74.78
2022-10-17T17:42:39.921Z,74.99
2022-10-17T17:45:08.021Z,74.95
2022-10-17T17:47:35.590Z,76.04
2022-10-17T17:50:03.658Z,75.63
2022-10-17T17:52:31.591Z,75.87
2022-10-17T17:54:59.461Z,76.05
2022-10-17T17:57:29.481Z,75.65
2022-10-17T17:59:57.097Z,75.97
2022-10-17T18:02:24.628Z,76.21
2022-10-17T18:04:52.134Z,76.19
2022-10-17T18:07:19.669Z,76.35
2022-10-17T18:09:49.166Z,76.47
2022-10-17T18:12:16.845Z,76.58
2022-10-17T18:14:44.310Z,76.45
2022-10-17T18:17:11.860Z,76.52
2022-10-17T18:19:39.622Z,76.51
2022-10-17T18:22:07.424Z,76.91
2022-10-17T18:24:36.291Z,77.08
2022-10-17T18:27:04.193Z,77.31
2022-10-17T18:29:32.776Z,76.49
2022-10-17T18:32:00.409Z,76.69
2022-10-17T18:34:27.948Z,76.81
2022-10-17T18:36:55.568Z,76.95
2022-10-17T18:39:23.273Z,77.40
2022-10-17T18:41:50.914Z,76.98
2022-10-17T18:44:18.531Z,77.08
2022-10-17T18:46:46.992Z,77.77
2022-10-17T18:49:18.973Z,77.57
2022-10-17T18:51:46.884Z,78.00
2022-10-17T18:54:20.454Z,77.29
2022-10-17T18:56:51.029Z,77.55
2022-10-17T18:59:19.693Z,77.43
2022-10-17T19:01:48.017Z,77.60
2022-10-17T19:04:15.867Z,78.09
2022-10-17T19:06:44.545Z,78.27
2022-10-17T19:09:13.666Z,78.99
2022-10-17T19:11:42.174Z,78.68
2022-10-17T19:14:15.032Z,78.80
2022-10-17T19:16:46.597Z,78.17
2022-10-17T19:19:16.205Z,78.98
2022-10-17T19:21:44.370Z,78.87
2022-10-17T19:24:17.833Z,78.70
2022-10-17T19:26:46.830Z,78.68
2022-10-17T19:29:15.984Z,79.21
2022-10-17T19:31:44.558Z,79.31
2022-10-17T19:34:13.213Z,78.99
2022-10-17T19:36:41.214Z,78.11
2022-10-17T19:39:15.876Z,78.74
2022-10-17T19:41:45.183Z,78.78
2022-10-17T19:44:13.192Z,78.57
2022-10-17T19:46:40.974Z,79.45
2022-10-17T19:49:08.484Z,79.43
2022-10-17T19:51:36.054Z,79.57
2022-10-17T19:54:04.025Z,78.87
2022-10-17T19:56:33.865Z,79.47
2022-10-17T19:59:01.541Z,79.16
2022-10-17T20:01:33.224Z,79.53
2022-10-17T20:04:00.955Z,79.19
2022-10-17T20:06:28.490Z,79.45
2022-10-17T20:08:56.632Z,79.84
2022-10-17T20:11:26.991Z,79.52
2022-10-17T20:13:55.808Z,80.54
2022-10-17T20:16:25.644Z,80.37
2022-10-17T20:18:55.644Z,80.39
2022-10-17T20:21:28.670Z,79.75
2022-10-17T20:23:56.305Z,80.49
2022-10-17T20:26:36.600Z,81.03
2022-10-17T20:29:10.914Z,80.79
2022-10-17T20:31:40.475Z,82.05
2022-10-17T20:34:11.374Z,81.15
2022-10-17T20:36:40.332Z,81.71
2022-10-17T20:39:09.788Z,80.87
2022-10-17T20:41:37.274Z,80.53
2022-10-17T20:44:06.809Z,81.34
2022-10-17T20:46:37.279Z,81.80
2022-10-17T20:49:08.819Z,81.77
2022-10-17T20:51:36.439Z,81.62
2022-10-17T20:54:05.000Z,81.47
2022-10-17T20:56:34.114Z,81.75
2022-10-17T20:59:04.683Z,81.58
2022-10-17T21:01:34.942Z,82.10
2022-10-17T21:04:26.931Z,82.32
2022-10-17T21:06:54.263Z,81.17
2022-10-17T21:09:22.354Z,81.61
2022-10-17T21:11:55.668Z,81.52
2022-10-17T21:14:33.740Z,81.69
2022-10-17T21:17:04.917Z,81.63
2022-10-17T21:19:32.905Z,82.11
2022-10-17T21:22:00.742Z,82.14
2022-10-17T21:24:28.384Z,81.95
2022-10-17T21:26:57.141Z,81.57
2022-10-17T21:29:24.798Z,81.87
2022-10-17T21:31:52.735Z,81.91
2022-10-17T21:34:23.919Z,81.97
2022-10-17T21:36:52.267Z,82.37
2022-10-17T21:39:20.399Z,81.52
2022-10-17T21:41:47.906Z,81.74
2022-10-17T21:44:20.959Z,82.04
2022-10-17T21:46:49.191Z,82.49
2022-10-17T21:49:21.819Z,81.75
2022-10-17T21:51:49.887Z,82.40
2022-10-17T21:54:19.140Z,81.70
2022-10-17T21:56:46.829Z,82.45
2022-10-17T21:59:14.409Z,82.13
2022-10-17T22:01:44.128Z,82.15
2022-10-17T22:04:14.830Z,82.28
2022-10-17T22:06:44.277Z,82.62
2022-10-17T22:09:18.409Z,82.58
2022-10-17T22:11:48.335Z,82.31
2022-10-17T22:14:18.588Z,83.68
2022-10-17T22:16:47.349Z,83.20
2022-10-17T22:19:18.490Z,83.20
2022-10-17T22:21:46.230Z,83.36
2022-10-17T22:24:15.420Z,83.38
2022-10-17T22:26:44.519Z,82.45
2022-10-17T22:29:12.612Z,82.81
2022-10-17T22:31:40.850Z,82.93
2022-10-17T22:34:11.545Z,82.93
2022-10-17T22:36:39.092Z,83.49
2022-10-17T22:39:07.359Z,83.52
2022-10-17T22:41:34.893Z,83.96
2022-10-17T22:44:02.503Z,82.91
2022-10-17T22:46:30.046Z,83.52
2022-10-17T22:48:57.711Z,83.38
2022-10-17T22:51:26.179Z,82.71
2022-10-17T22:53:53.735Z,82.82
2022-10-17T22:56:22.859Z,82.57
2022-10-17T22:58:50.906Z,82.67
2022-10-17T23:01:21.691Z,82.90
2022-10-17T23:03:50.207Z,83.32
2022-10-17T23:06:18.349Z,83.53
2022-10-17T23:08:46.184Z,83.88
2022-10-17T23:11:14.165Z,83.16
2022-10-17T23:13:41.724Z,83.55
2022-10-17T23:16:09.691Z,83.84
2022-10-17T23:18:38.310Z,84.04
2022-10-17T23:21:06.752Z,84.26
2022-10-17T23:23:34.880Z,83.18
2022-10-17T23:26:08.097Z,82.93
2022-10-17T23:28:36.093Z,83.74
2022-10-17T23:31:16.620Z,83.31
2022-10-17T23:33:45.484Z,83.77
2022-10-17T23:36:15.110Z,83.58
2022-10-17T23:38:44.344Z,83.60
2022-10-17T23:41:12.653Z,83.66
2022-10-17T23:43:40.499Z,83.40
2022-10-17T23:46:08.740Z,82.90
2022-10-17T23:48:38.426Z,84.33
2022-10-17T23:51:07.720Z,83.47
2022-10-17T23:53:36.504Z,83.90
2022-10-17T23:56:05.115Z,83.70
2022-10-17T23:58:33.272Z,84.19
